createdAt,value
2023-04-14T00:00:41.863Z,45.00
2023-04-14T00:03:23.400Z,48.60
2023-04-14T00:05:56.042Z,44.00
2023-04-14T00:08:28.020Z,38.60
2023-04-14T00:11:01.394Z,39.40
2023-04-14T00:13:33.333Z,43.80
2023-04-14T00:16:06.302Z,44.90
2023-04-14T00:18:38.135Z,37.10
2023-04-14T00:21:13.373Z,39.60
2023-04-14T00:23:45.654Z,41.30
2023-04-14T00:26:17.607Z,37.80
2023-04-14T00:28:49.631Z,35.70
2023-04-14T00:31:21.594Z,38.10
2023-04-14T00:33:53.577Z,36.20
2023-04-14T00:36:25.890Z,40.30
2023-04-14T00:38:58.002Z,45.00
2023-04-14T00:41:33.804Z,49.40
2023-04-14T00:44:10.375Z,42.60
2023-04-14T00:46:42.869Z,43.10
2023-04-14T00:49:16.724Z,42.30
2023-04-14T00:51:50.366Z,37.00
2023-04-14T00:54:22.686Z,45.50
2023-04-14T00:56:58.061Z,40.00
2023-04-14T00:59:30.201Z,39.30
2023-04-14T01:02:03.312Z,36.80
2023-04-14T01:04:52.031Z,41.70
2023-04-14T01:07:26.989Z,39.10
2023-04-14T01:10:01.000Z,42.20
2023-04-14T01:12:56.512Z,38.30
2023-04-14T01:15:35.638Z,49.10
2023-04-14T01:18:18.210Z,58.40
2023-04-14T01:20:53.665Z,47.80
2023-04-14T01:23:32.018Z,51.70
2023-04-14T01:26:20.147Z,49.30
2023-04-14T01:29:25.902Z,44.40
2023-04-14T01:32:05.694Z,44.80
2023-04-14T01:34:51.676Z,40.60
2023-04-14T01:37:30.827Z,43.10
2023-04-14T01:40:11.387Z,37.10
2023-04-14T01:42:49.699Z,33.70
2023-04-14T01:45:26.582Z,32.60
2023-04-14T01:47:59.769Z,34.90
2023-04-14T01:50:32.674Z,33.50
2023-04-14T01:53:10.088Z,30.60
2023-04-14T01:55:45.861Z,32.40
2023-04-14T01:58:20.050Z,36.90
2023-04-14T02:00:53.486Z,38.30
2023-04-14T02:03:26.887Z,40.10
2023-04-14T02:06:03.066Z,35.40
2023-04-14T02:08:37.510Z,34.10
2023-04-14T02:11:11.109Z,34.70
2023-04-14T02:13:44.994Z,35.50
2023-04-14T02:16:18.671Z,37.70
2023-04-14T02:18:52.425Z,49.90
2023-04-14T02:21:28.860Z,44.30
2023-04-14T02:24:01.229Z,39.10
2023-04-14T02:26:37.046Z,37.90
2023-04-14T02:29:13.557Z,40.60
2023-04-14T02:31:50.812Z,38.10
2023-04-14T02:34:25.561Z,38.20
2023-04-14T02:37:01.902Z,40.20
2023-04-14T02:39:38.371Z,35.80
2023-04-14T02:42:16.142Z,36.10
2023-04-14T02:44:52.698Z,34.40
2023-04-14T02:47:33.009Z,33.10
2023-04-14T02:50:07.616Z,33.20
2023-04-14T02:52:43.525Z,34.60
2023-04-14T02:55:15.742Z,35.50
2023-04-14T02:57:50.245Z,33.00
2023-04-14T03:00:25.084Z,35.60
2023-04-14T03:02:59.241Z,35.30
2023-04-14T03:05:33.305Z,33.40
2023-04-14T03:08:17.466Z,33.80
2023-04-14T03:10:52.945Z,36.80
2023-04-14T03:13:29.867Z,45.50
2023-04-14T03:16:03.434Z,55.00
2023-04-14T03:18:37.582Z,50.80
2023-04-14T03:21:10.004Z,42.60
2023-04-14T03:23:42.706Z,45.80
2023-04-14T03:26:20.898Z,41.90
2023-04-14T03:28:53.572Z,33.70
2023-04-14T03:31:32.580Z,37.10
2023-04-14T03:34:07.427Z,34.70
2023-04-14T03:36:43.723Z,39.60
2023-04-14T03:39:16.727Z,45.30
2023-04-14T03:41:51.726Z,34.80
2023-04-14T03:44:28.349Z,34.80
2023-04-14T03:47:03.591Z,33.20
2023-04-14T03:49:43.510Z,33.50
2023-04-14T03:52:22.961Z,36.90
2023-04-14T03:55:03.413Z,33.50
2023-04-14T03:57:38.033Z,33.90
2023-04-14T04:00:13.895Z,34.20
2023-04-14T04:02:46.925Z,39.20
2023-04-14T04:05:21.598Z,30.40
2023-04-14T04:07:55.155Z,36.40
2023-04-14T04:10:30.187Z,35.40
2023-04-14T04:13:03.581Z,38.20
2023-04-14T04:15:36.862Z,37.30
2023-04-14T04:18:12.398Z,32.00
2023-04-14T04:20:46.310Z,37.10
2023-04-14T04:23:21.592Z,38.00
2023-04-14T04:25:54.552Z,36.20
2023-04-14T04:28:32.417Z,37.40
2023-04-14T04:31:07.655Z,40.40
2023-04-14T04:33:39.893Z,38.30
2023-04-14T04:36:13.132Z,53.50
2023-04-14T04:38:46.770Z,41.90
2023-04-14T04:41:27.096Z,39.70
2023-04-14T04:46:55.521Z,42.70
2023-04-14T04:49:30.585Z,45.40
2023-04-14T04:52:06.769Z,50.70
2023-04-14T04:54:39.228Z,44.50
2023-04-14T04:57:12.146Z,49.10
2023-04-14T04:59:44.219Z,44.20
2023-04-14T05:02:16.559Z,44.80
2023-04-14T05:04:48.856Z,50.10
2023-04-14T05:07:21.217Z,52.90
2023-04-14T05:09:53.781Z,52.90
2023-04-14T05:12:25.868Z,58.80
2023-04-14T05:15:00.010Z,46.30
2023-04-14T05:17:32.321Z,49.90
2023-04-14T05:20:05.780Z,51.80
2023-04-14T05:22:38.022Z,53.60
2023-04-14T05:25:11.003Z,61.40
2023-04-14T05:27:43.116Z,50.50
2023-04-14T05:30:16.491Z,54.00
2023-04-14T05:32:48.477Z,47.20
2023-04-14T05:35:20.593Z,77.60
2023-04-14T05:37:52.602Z,100.40
2023-04-14T05:40:28.414Z,84.00
2023-04-14T05:43:00.415Z,58.50
2023-04-14T05:45:32.494Z,52.60
2023-04-14T05:48:05.052Z,59.50
2023-04-14T05:50:38.479Z,51.50
2023-04-14T05:53:12.040Z,56.90
2023-04-14T05:55:44.161Z,60.60
2023-04-14T05:58:16.097Z,45.70
2023-04-14T06:00:48.029Z,48.90
2023-04-14T06:03:20.188Z,50.70
2023-04-14T06:05:53.212Z,58.40
2023-04-14T06:08:25.519Z,52.10
2023-04-14T06:10:57.691Z,53.40
2023-04-14T06:13:32.507Z,62.20
2023-04-14T06:16:06.671Z,61.20
2023-04-14T06:18:38.639Z,52.00
2023-04-14T06:21:10.545Z,60.30
2023-04-14T06:23:42.547Z,73.20
2023-04-14T06:26:14.962Z,52.10
2023-04-14T06:28:47.127Z,53.00
2023-04-14T06:31:19.138Z,46.80
2023-04-14T06:33:53.001Z,54.20
2023-04-14T06:36:25.792Z,57.60
2023-04-14T06:38:57.984Z,68.90
2023-04-14T06:41:30.112Z,77.70
2023-04-14T06:44:02.137Z,78.90
2023-04-14T06:46:36.016Z,64.80
2023-04-14T06:49:10.892Z,51.60
2023-04-14T06:51:42.847Z,54.80
2023-04-14T06:54:14.907Z,55.20
2023-04-14T06:56:47.276Z,46.50
2023-04-14T06:59:21.170Z,46.60
2023-04-14T07:01:53.172Z,45.50
2023-04-14T07:04:25.287Z,46.80
2023-04-14T07:07:02.039Z,45.00
2023-04-14T07:09:34.431Z,57.80
2023-04-14T07:12:07.001Z,53.00
2023-04-14T07:14:39.076Z,44.80
2023-04-14T07:17:11.033Z,50.40
2023-04-14T07:19:43.016Z,47.70
2023-04-14T07:22:18.782Z,45.10
2023-04-14T07:24:50.949Z,44.80
2023-04-14T07:27:22.891Z,49.50
2023-04-14T07:29:55.474Z,46.70
2023-04-14T07:32:27.593Z,47.90
2023-04-14T07:34:59.590Z,48.20
2023-04-14T07:37:31.691Z,40.20
2023-04-14T07:40:04.189Z,50.00
2023-04-14T07:42:36.786Z,49.00
2023-04-14T07:45:10.344Z,44.40
2023-04-14T07:47:42.281Z,49.70
2023-04-14T07:50:19.644Z,45.30
2023-04-14T07:52:52.075Z,45.30
2023-04-14T07:55:25.536Z,45.50
2023-04-14T07:57:59.381Z,37.50
2023-04-14T08:00:31.523Z,36.80
2023-04-14T08:03:03.786Z,37.40
2023-04-14T08:05:36.259Z,33.10
2023-04-14T08:08:08.448Z,33.10
2023-04-14T08:10:41.586Z,34.70
2023-04-14T08:13:13.606Z,37.00
2023-04-14T08:15:46.442Z,27.40
2023-04-14T08:18:18.635Z,28.60
2023-04-14T08:20:50.812Z,27.20
2023-04-14T08:23:22.968Z,25.90
2023-04-14T08:25:55.177Z,26.00
2023-04-14T08:28:28.843Z,22.80
2023-04-14T08:31:01.183Z,24.40
2023-04-14T08:33:33.966Z,20.30
2023-04-14T08:36:06.877Z,23.10
2023-04-14T08:38:38.773Z,23.80
2023-04-14T08:41:13.789Z,20.90
2023-04-14T08:43:46.353Z,20.30
2023-04-14T08:46:21.128Z,16.60
2023-04-14T08:49:04.684Z,16.90
2023-04-14T08:51:42.925Z,18.00
2023-04-14T08:54:19.229Z,17.80
2023-04-14T08:56:55.002Z,17.10
2023-04-14T08:59:29.736Z,14.90
2023-04-14T09:02:02.186Z,14.80
2023-04-14T09:04:37.506Z,13.80
2023-04-14T09:07:10.550Z,12.50
2023-04-14T09:09:43.067Z,10.50
2023-04-14T09:12:16.934Z,14.70
2023-04-14T09:14:50.399Z,8.90
2023-04-14T09:17:23.309Z,9.60
2023-04-14T09:20:35.251Z,12.80
2023-04-14T09:22:54.001Z,10.00
2023-04-14T09:25:27.188Z,10.50
2023-04-14T09:27:59.285Z,9.20
2023-04-14T09:30:31.865Z,11.70
2023-04-14T09:33:07.737Z,9.90
2023-04-14T09:35:50.343Z,8.40
2023-04-14T09:38:37.204Z,9.00
2023-04-14T09:41:09.398Z,9.10
2023-04-14T09:43:41.354Z,8.60
2023-04-14T09:46:15.744Z,8.80
2023-04-14T09:48:57.774Z,6.00
2023-04-14T09:51:35.087Z,7.00
2023-04-14T09:54:07.355Z,6.20
2023-04-14T09:56:39.288Z,9.70
2023-04-14T09:59:11.538Z,9.10
2023-04-14T10:01:48.054Z,8.10
2023-04-14T10:04:26.692Z,6.20
2023-04-14T10:07:02.052Z,8.60
2023-04-14T10:09:38.867Z,6.80
2023-04-14T10:12:13.726Z,6.60
2023-04-14T10:14:48.217Z,10.30
2023-04-14T10:17:20.348Z,6.90
2023-04-14T10:19:52.709Z,8.30
2023-04-14T10:22:27.750Z,5.00
2023-04-14T10:25:01.658Z,8.90
2023-04-14T10:27:38.832Z,14.20
2023-04-14T10:30:24.544Z,9.20
2023-04-14T10:32:58.415Z,6.70
2023-04-14T10:35:40.781Z,6.10
2023-04-14T10:38:15.749Z,6.40
2023-04-14T10:40:53.643Z,6.90
2023-04-14T10:43:30.274Z,8.20
2023-04-14T10:46:02.704Z,13.10
2023-04-14T10:48:37.428Z,8.20
2023-04-14T10:51:11.939Z,6.00
2023-04-14T10:53:47.674Z,8.60
2023-04-14T10:56:24.041Z,6.30
2023-04-14T10:59:00.257Z,5.30
2023-04-14T11:01:33.774Z,8.20
2023-04-14T11:04:20.046Z,6.50
2023-04-14T11:06:55.364Z,8.50
2023-04-14T11:09:33.851Z,6.50
2023-04-14T11:12:26.103Z,6.90
2023-04-14T11:15:05.026Z,5.40
2023-04-14T11:17:40.264Z,6.00
2023-04-14T11:20:19.153Z,6.50
2023-04-14T11:22:52.921Z,5.60
2023-04-14T11:25:25.313Z,5.10
2023-04-14T11:27:57.524Z,6.90
2023-04-14T11:30:29.562Z,7.80
2023-04-14T11:33:01.822Z,6.30
2023-04-14T11:35:34.036Z,7.70
2023-04-14T11:38:10.670Z,8.70
2023-04-14T11:40:42.618Z,9.30
2023-04-14T11:43:14.923Z,6.80
2023-04-14T11:45:48.703Z,9.00
2023-04-14T11:48:21.849Z,7.70
2023-04-14T11:50:53.869Z,7.00
2023-04-14T11:53:26.231Z,10.30
2023-04-14T11:55:58.202Z,7.00
2023-04-14T11:58:31.399Z,10.30
2023-04-14T12:01:03.775Z,7.00
2023-04-14T12:03:39.270Z,6.80
2023-04-14T12:06:11.862Z,6.60
2023-04-14T12:08:50.514Z,5.00
2023-04-14T12:11:22.776Z,7.50
2023-04-14T12:13:54.821Z,7.80
2023-04-14T12:16:27.181Z,6.50
2023-04-14T12:18:59.445Z,7.00
2023-04-14T12:21:31.537Z,6.20
2023-04-14T12:24:03.693Z,4.80
2023-04-14T12:26:37.290Z,5.80
2023-04-14T12:29:10.085Z,5.60
2023-04-14T12:31:45.120Z,9.40
2023-04-14T12:34:19.691Z,6.70
2023-04-14T12:36:54.681Z,8.30
2023-04-14T12:39:28.580Z,8.40
2023-04-14T12:42:04.696Z,5.90
2023-04-14T12:44:37.018Z,6.90
2023-04-14T12:47:08.982Z,5.70
2023-04-14T12:49:41.142Z,6.40
2023-04-14T12:52:37.201Z,10.40
2023-04-14T12:55:20.107Z,8.60
2023-04-14T12:57:54.760Z,5.40
2023-04-14T13:00:28.819Z,4.00
2023-04-14T13:03:00.946Z,5.10
2023-04-14T13:05:33.014Z,5.00
2023-04-14T13:08:04.884Z,4.60
2023-04-14T13:10:36.907Z,5.00
2023-04-14T13:13:08.779Z,6.20
2023-04-14T13:16:21.140Z,5.10
2023-04-14T13:18:32.653Z,6.80
2023-04-14T13:21:05.090Z,6.50
2023-04-14T13:23:37.020Z,10.10
2023-04-14T13:26:09.174Z,4.70
2023-04-14T13:28:41.417Z,6.30
2023-04-14T13:31:17.334Z,5.80
2023-04-14T13:33:49.304Z,4.10
2023-04-14T13:36:22.400Z,7.20
2023-04-14T13:38:54.280Z,5.20
2023-04-14T13:41:26.833Z,5.30
2023-04-14T13:43:58.660Z,6.60
2023-04-14T13:46:31.565Z,4.80
2023-04-14T13:49:08.168Z,5.80
2023-04-14T13:51:41.847Z,5.00
2023-04-14T13:54:13.757Z,5.80
2023-04-14T13:56:45.703Z,5.60
2023-04-14T13:59:18.588Z,5.10
2023-04-14T14:01:51.594Z,5.60
2023-04-14T14:04:24.093Z,7.20
2023-04-14T14:06:56.262Z,9.30
2023-04-14T14:09:28.507Z,8.60
2023-04-14T14:12:00.524Z,6.80
2023-04-14T14:14:32.508Z,7.00
2023-04-14T14:17:04.500Z,7.60
2023-04-14T14:19:36.522Z,5.80
2023-04-14T14:22:08.563Z,7.20
2023-04-14T14:24:41.617Z,6.30
2023-04-14T14:27:13.742Z,7.90
2023-04-14T14:29:45.665Z,7.80
2023-04-14T14:32:17.805Z,6.20
2023-04-14T14:34:49.894Z,6.70
2023-04-14T14:37:22.323Z,7.40
2023-04-14T14:39:55.480Z,7.80
2023-04-14T14:42:28.330Z,6.90
2023-04-14T14:45:01.079Z,7.80
2023-04-14T14:47:35.334Z,10.40
2023-04-14T14:50:12.609Z,7.90
2023-04-14T14:52:44.583Z,7.60
2023-04-14T14:55:17.622Z,6.80
2023-04-14T14:57:51.124Z,8.30
2023-04-14T15:00:23.478Z,6.90
2023-04-14T15:02:57.201Z,7.90
2023-04-14T15:05:29.361Z,9.10
2023-04-14T15:08:01.456Z,7.70
2023-04-14T15:10:36.089Z,6.30
2023-04-14T15:13:08.312Z,9.30
2023-04-14T15:15:43.091Z,7.90
2023-04-14T15:18:18.194Z,8.80
2023-04-14T15:20:54.070Z,7.00
2023-04-14T15:23:26.300Z,8.00
2023-04-14T15:26:03.414Z,12.20
2023-04-14T15:28:41.212Z,9.50
2023-04-14T15:31:15.483Z,8.30
2023-04-14T15:33:47.812Z,11.50
2023-04-14T15:36:21.282Z,10.70
2023-04-14T15:38:53.510Z,12.70
2023-04-14T15:41:28.295Z,9.40
2023-04-14T15:44:09.904Z,6.10
2023-04-14T15:50:08.511Z,10.40
2023-04-14T15:52:42.670Z,7.50
2023-04-14T15:55:14.513Z,7.10
2023-04-14T15:57:50.756Z,8.80
2023-04-14T16:00:28.700Z,12.40
2023-04-14T16:03:04.643Z,8.50
2023-04-14T16:05:41.040Z,8.60
2023-04-14T16:08:14.780Z,10.10
2023-04-14T16:10:49.148Z,8.80
2023-04-14T16:13:21.097Z,11.90
2023-04-14T16:15:53.650Z,8.80
2023-04-14T16:18:25.890Z,11.00
2023-04-14T16:20:57.891Z,12.00
2023-04-14T16:23:31.459Z,9.30
2023-04-14T16:26:03.449Z,8.80
2023-04-14T16:28:35.657Z,12.30
2023-04-14T16:31:08.078Z,8.90
2023-04-14T16:33:40.278Z,9.80
2023-04-14T16:36:15.696Z,8.30
2023-04-14T16:38:49.129Z,12.40
2023-04-14T16:41:21.799Z,13.20
2023-04-14T16:44:03.648Z,13.40
2023-04-14T16:46:36.040Z,13.10
2023-04-14T16:49:08.084Z,14.00
2023-04-14T16:51:40.295Z,11.50
2023-04-14T16:54:12.487Z,10.50
2023-04-14T16:56:45.449Z,10.70
2023-04-14T16:59:17.493Z,17.90
2023-04-14T17:01:49.487Z,12.60
2023-04-14T17:04:21.690Z,15.50
2023-04-14T17:06:53.737Z,15.40
2023-04-14T17:09:25.707Z,10.90
2023-04-14T17:11:57.745Z,10.70
2023-04-14T17:14:29.620Z,12.60
2023-04-14T17:17:02.896Z,13.30
2023-04-14T17:19:34.982Z,13.70
2023-04-14T17:22:07.278Z,11.30
2023-04-14T17:24:39.273Z,10.80
2023-04-14T17:27:11.263Z,14.20
2023-04-14T17:29:43.139Z,13.50
2023-04-14T17:32:19.671Z,13.70
2023-04-14T17:34:52.098Z,12.70
2023-04-14T17:37:24.222Z,11.40
2023-04-14T17:39:57.182Z,10.30
2023-04-14T17:42:30.982Z,10.30
2023-04-14T17:45:03.114Z,9.90
2023-04-14T17:47:38.075Z,11.80
2023-04-14T17:50:11.336Z,17.00
2023-04-14T17:52:43.452Z,13.80
2023-04-14T17:55:16.458Z,19.20
2023-04-14T17:57:50.419Z,18.80
2023-04-14T18:00:22.759Z,27.20
2023-04-14T18:02:54.696Z,28.10
2023-04-14T18:05:26.692Z,18.40
2023-04-14T18:07:58.743Z,18.10
2023-04-14T18:10:30.965Z,19.30
2023-04-14T18:13:03.014Z,18.70
2023-04-14T18:15:35.291Z,14.50
2023-04-14T18:18:07.862Z,12.20
2023-04-14T18:20:39.795Z,14.70
2023-04-14T18:23:11.758Z,16.10
2023-04-14T18:28:18.881Z,13.00
2023-04-14T18:30:58.424Z,13.80
2023-04-14T18:33:31.719Z,14.80
2023-04-14T18:36:03.868Z,15.20
2023-04-14T18:38:35.939Z,11.30
2023-04-14T18:41:08.340Z,15.90
2023-04-14T18:43:40.308Z,17.50
2023-04-14T18:46:12.438Z,20.90
2023-04-14T18:48:44.877Z,14.00
2023-04-14T18:51:18.031Z,11.90
2023-04-14T18:53:50.330Z,16.70
2023-04-14T18:56:22.457Z,12.70
2023-04-14T18:58:55.906Z,13.90
2023-04-14T19:01:28.665Z,10.80
2023-04-14T19:04:01.138Z,10.80
2023-04-14T19:06:33.583Z,11.00
2023-04-14T19:09:05.924Z,11.70
2023-04-14T19:11:37.777Z,11.10
2023-04-14T19:14:09.802Z,15.00
2023-04-14T19:16:41.716Z,18.30
2023-04-14T19:19:13.704Z,14.60
2023-04-14T19:21:45.614Z,14.30
2023-04-14T19:24:17.849Z,13.40
2023-04-14T19:26:50.431Z,12.40
2023-04-14T19:29:22.854Z,18.20
2023-04-14T19:31:54.825Z,11.30
2023-04-14T19:34:27.254Z,35.20
2023-04-14T19:36:59.166Z,15.40
2023-04-14T19:39:31.584Z,18.10
2023-04-14T19:42:03.666Z,14.60
2023-04-14T19:44:40.340Z,14.50
2023-04-14T19:47:12.372Z,14.30
2023-04-14T19:49:44.373Z,12.40
2023-04-14T19:52:16.535Z,12.50
2023-04-14T19:54:48.590Z,13.50
2023-04-14T19:57:21.833Z,10.80
2023-04-14T19:59:54.648Z,14.00
2023-04-14T20:02:30.236Z,13.50
2023-04-14T20:05:02.424Z,12.60
2023-04-14T20:07:34.458Z,12.20
2023-04-14T20:10:08.343Z,9.40
2023-04-14T20:12:40.798Z,11.70
2023-04-14T20:15:13.293Z,13.20
2023-04-14T20:17:45.714Z,18.10
2023-04-14T20:20:18.792Z,14.60
2023-04-14T20:22:50.749Z,10.40
2023-04-14T20:25:23.510Z,11.40
2023-04-14T20:27:55.482Z,12.60
2023-04-14T20:30:29.432Z,11.00
2023-04-14T20:33:02.826Z,12.30
2023-04-14T20:35:39.429Z,16.40
2023-04-14T20:38:15.033Z,13.10
2023-04-14T20:40:47.731Z,11.30
2023-04-14T20:43:19.895Z,29.80
2023-04-14T20:45:53.179Z,27.30
2023-04-14T20:48:25.482Z,18.20
2023-04-14T20:50:57.970Z,20.30
2023-04-14T20:53:30.370Z,17.50
2023-04-14T20:56:02.393Z,15.00
2023-04-14T20:58:34.462Z,14.40
2023-04-14T21:01:06.695Z,19.60
2023-04-14T21:03:39.550Z,15.90
2023-04-14T21:06:11.867Z,16.40
2023-04-14T21:08:44.050Z,14.50
2023-04-14T21:11:18.634Z,44.80
2023-04-14T21:15:28.255Z,19.90
2023-04-14T21:16:43.484Z,25.30
2023-04-14T21:19:15.799Z,18.20
2023-04-14T21:21:47.959Z,77.50
2023-04-14T21:24:19.952Z,27.40
2023-04-14T21:26:52.153Z,19.20
2023-04-14T21:29:24.060Z,17.50
2023-04-14T21:31:56.266Z,18.90
2023-04-14T21:34:28.478Z,23.70
2023-04-14T21:37:00.550Z,48.70
2023-04-14T21:39:33.789Z,27.10
2023-04-14T21:42:05.965Z,17.60
2023-04-14T21:44:37.865Z,16.10
2023-04-14T21:47:09.992Z,16.90
2023-04-14T21:49:41.972Z,15.30
2023-04-14T21:52:14.936Z,14.10
2023-04-14T21:54:47.823Z,15.70
2023-04-14T21:57:42.980Z,15.70
2023-04-14T22:00:16.415Z,16.00
2023-04-14T22:02:49.867Z,14.20
2023-04-14T22:05:22.037Z,65.90
2023-04-14T22:07:55.275Z,19.30
2023-04-14T22:10:32.291Z,16.20
2023-04-14T22:13:04.477Z,15.10
2023-04-14T22:15:36.614Z,15.00
2023-04-14T22:18:08.785Z,15.60
2023-04-14T22:20:40.764Z,13.90
2023-04-14T22:23:13.412Z,14.80
2023-04-14T22:25:47.917Z,15.90
2023-04-14T22:28:20.007Z,16.50
2023-04-14T22:30:51.974Z,12.60
2023-04-14T22:33:24.365Z,13.20
2023-04-14T22:35:56.852Z,14.00
2023-04-14T22:38:28.874Z,16.60
2023-04-14T22:41:00.884Z,11.50
2023-04-14T22:43:32.864Z,13.20
2023-04-14T22:46:04.900Z,16.60
2023-04-14T22:48:37.199Z,16.50
2023-04-14T22:51:09.181Z,18.80
2023-04-14T22:53:41.310Z,18.20
2023-04-14T22:56:13.235Z,16.20
2023-04-14T22:58:46.578Z,15.90
2023-04-14T23:01:22.792Z,17.30
2023-04-14T23:03:55.013Z,14.60
2023-04-14T23:06:30.312Z,16.70
2023-04-14T23:09:03.471Z,16.90
2023-04-14T23:11:35.604Z,15.70
2023-04-14T23:14:07.611Z,15.50
2023-04-14T23:16:39.557Z,14.90
2023-04-14T23:19:11.861Z,16.50
2023-04-14T23:21:45.355Z,18.80
2023-04-14T23:24:17.419Z,18.00
2023-04-14T23:26:49.352Z,23.60
2023-04-14T23:29:21.517Z,19.30
2023-04-14T23:31:53.644Z,21.10
2023-04-14T23:34:26.076Z,16.10
2023-04-14T23:36:58.142Z,14.10
2023-04-14T23:39:30.468Z,17.00
2023-04-14T23:42:02.512Z,13.10
2023-04-14T23:44:34.513Z,15.10
2023-04-14T23:47:08.435Z,13.30
2023-04-14T23:49:40.644Z,13.10
2023-04-14T23:52:12.757Z,15.40
2023-04-14T23:54:44.707Z,13.00
2023-04-14T23:57:16.924Z,12.10
2023-04-14T23:59:48.964Z,11.40
